ADDS - METARS form results

Aviation Digital Data Service (ADDS)

Output produced by METARs form (0052 UTC 11 December 2018)
found at http://aviationweather.gov/metar/data/
 
METAR text: KPNT 110035Z AUTO 22007KT 7SM CLR M01/M02 A3022 RMK AO2 T10131019
Conditions at: KPNT (PONTIAC , IL, US) observed 0035 UTC 11 December 2018
Temperature: -1.3°C (30°F)
Dewpoint: -1.9°C (29°F) [RH = 96%]
Pressure (altimeter): 30.22 inches Hg (1023.5 mb)
Winds: from the SW (220 degrees) at 8 MPH (7 knots; 3.6 m/s)
Visibility: 7 miles (11 km)
Ceiling: at least 12,000 feet AGL
Clouds: sky clear below 12,000 feet AGL
Weather: automated observation with no human augmentation;
there may or may not be significant weather present at this time

METAR text: KPNT 110015Z AUTO 22007KT 7SM CLR M01/M02 A3022 RMK AO2 T10101018
Conditions at: KPNT (PONTIAC , IL, US) observed 0015 UTC 11 December 2018
Temperature: -1.0°C (30°F)
Dewpoint: -1.8°C (29°F) [RH = 94%]
Pressure (altimeter): 30.22 inches Hg (1023.5 mb)
Winds: from the SW (220 degrees) at 8 MPH (7 knots; 3.6 m/s)
Visibility: 7 miles (11 km)
Ceiling: at least 12,000 feet AGL
Clouds: sky clear below 12,000 feet AGL
Weather: automated observation with no human augmentation;
there may or may not be significant weather present at this time

METAR text: KPNT 102355Z AUTO 21006KT 7SM CLR M01/M02 A3023 RMK AO2 T10091018 10011 21034
Conditions at: KPNT (PONTIAC , IL, US) observed 2355 UTC 10 December 2018
Temperature: -0.9°C (30°F)
Dewpoint: -1.8°C (29°F) [RH = 94%]
Pressure (altimeter): 30.23 inches Hg (1023.8 mb)
Winds: from the SSW (210 degrees) at 7 MPH (6 knots; 3.1 m/s)
Visibility: 7 miles (11 km)
Ceiling: at least 12,000 feet AGL
Clouds: sky clear below 12,000 feet AGL
Weather: automated observation with no human augmentation;
there may or may not be significant weather present at this time